createdAt,value
2019-03-12T00:11:34.128Z,83.1
2019-03-12T00:26:46.028Z,84.3
2019-03-12T00:41:57.801Z,82.1
2019-03-12T00:57:05.869Z,82.7
2019-03-12T01:12:21.520Z,83.2
2019-03-12T01:27:33.296Z,81.1
2019-03-12T01:42:45.174Z,80.2
2019-03-12T01:57:48.267Z,79.5
2019-03-12T02:13:08.875Z,79.2
2019-03-12T02:28:20.711Z,78.5
2019-03-12T02:43:32.528Z,76.7
2019-03-12T02:58:44.393Z,76.3
2019-03-12T03:13:56.252Z,78.2
2019-03-12T03:29:10.693Z,79.3
2019-03-12T03:44:19.779Z,80.5
2019-03-12T03:59:31.716Z,79.8
2019-03-12T04:14:38.691Z,79.2
2019-03-12T04:29:55.306Z,78.2
2019-03-12T04:45:07.391Z,78.1
2019-03-12T05:00:18.857Z,78
2019-03-12T05:15:20.354Z,79.2
2019-03-12T05:30:42.081Z,80.8
2019-03-12T05:45:53.646Z,80.8
2019-03-12T06:01:05.365Z,80.9
2019-03-12T06:16:16.982Z,81.1
2019-03-12T06:31:27.380Z,79.8
2019-03-12T06:46:40.520Z,76.8
2019-03-12T07:01:52.445Z,75.7
2019-03-12T07:17:04.777Z,74.9
2019-03-12T07:32:10.561Z,73.9
2019-03-12T07:47:36.242Z,69.7
2019-03-12T08:02:41.495Z,67.8
2019-03-12T08:17:54.056Z,66.5
2019-03-12T08:33:06.561Z,63.5
2019-03-12T08:48:19.124Z,61.4
2019-03-12T09:03:32.586Z,61.7
2019-03-12T09:18:44.531Z,59.2
2019-03-12T09:33:57.769Z,60.2
2019-03-12T09:49:06.773Z,59.4
2019-03-12T10:04:23.195Z,57.5
2019-03-12T10:19:36.224Z,53.8
2019-03-12T10:34:49.025Z,49.3
2019-03-12T10:49:53.027Z,46.9
2019-03-12T11:05:15.220Z,42.8
2019-03-12T11:20:28.590Z,40.4
2019-03-12T11:35:41.854Z,39.4
2019-03-12T11:50:55.589Z,38
2019-03-12T12:06:07.966Z,37.1
2019-03-12T12:21:22.742Z,35
2019-03-12T12:36:36.688Z,32.7
2019-03-12T12:51:53.111Z,31.4
2019-03-12T13:06:59.077Z,31.7
2019-03-12T13:22:19.248Z,28.9
2019-03-12T13:37:34.298Z,26.5
2019-03-12T13:52:49.342Z,25.1
2019-03-12T14:08:04.001Z,25.6
2019-03-12T14:23:15.194Z,23.4
2019-03-12T14:38:34.257Z,23.6
2019-03-12T14:53:49.475Z,22.9
2019-03-12T15:09:06.412Z,23.5
2019-03-12T15:24:19.306Z,23.9
2019-03-12T15:39:33.379Z,26
2019-03-12T15:54:47.727Z,25.8
2019-03-12T16:10:01.819Z,27
2019-03-12T16:25:16.478Z,28.4
2019-03-12T16:40:21.805Z,30.4
2019-03-12T16:55:43.291Z,31.2
2019-03-12T17:11:03.229Z,33.1
2019-03-12T17:26:10.119Z,34.5
2019-03-12T17:41:23.458Z,35.3
2019-03-12T17:56:35.959Z,35.8
2019-03-12T18:11:54.121Z,35.6
2019-03-12T18:27:02.990Z,35.4
2019-03-12T18:42:16.114Z,36
2019-03-12T18:57:22.632Z,35.9
2019-03-12T19:12:42.375Z,34.3
2019-03-12T19:28:00.723Z,31.9
2019-03-12T19:43:08.829Z,31
2019-03-12T19:58:22.096Z,31.2
2019-03-12T20:13:35.388Z,31.6
2019-03-12T20:28:48.669Z,31.6
2019-03-12T20:44:02.358Z,30.4
2019-03-12T20:59:15.799Z,31.9
2019-03-12T21:14:22.065Z,32.4
2019-03-12T21:29:42.470Z,34.5
2019-03-12T21:44:56.371Z,30.7
2019-03-12T22:00:09.939Z,32
2019-03-12T22:15:22.941Z,33.1
2019-03-12T22:30:34.758Z,33.9
2019-03-12T22:45:49.394Z,33.9
2019-03-12T23:01:02.136Z,34.2
2019-03-12T23:16:15.230Z,33.7
2019-03-12T23:31:19.942Z,33.1
2019-03-12T23:46:41.320Z,33
